Amarillo, Texas
Current Conditions -  °F | °C
As of 5:53 AM on Saturday 20 Dec 2014 (Local Time) from KAMA Reporting Station
Haze Haze  
Wind Chill: -5°   Ceiling: 200
Heat Index:   Visibility: 2.5mi
Dew Point:   Wind: 13mph
Humidity: 100%   Direction: 200°SSW
Pressure: 30.1"   Gusts: NA
Location:  35.21°N, 101.83°W
Report Text: KAMA 201153Z AUTO 20011KT 2 1/2SM BR OVC002 01/01 A3010 RMK AO2 SLP198 T00060006 10022 20006 55007
Loading
Personal Weather Stations






























Interactive Weather Map New forecast layout! Learn more

10-Day Weather Forecast

Advertisements
Track Severe Weather on mobile